首页
METAR-TAF:

METAR-TAF

机场 :

達爾文國際機場

达尔文, 澳大利亚

纬度: 12-24S, 经度: 130-52E, 海拔: 31米

当前天气观测

该预报发布于26分钟前的01:30 UTC
风速8节,风向东转东北
温度 29°C
湿度 55%
气压 1016 hPa
能见度10公里或以上
少量云层高于4000英尺

METAR: YPDN 310130Z 07008KT 9999 FEW040 29/19 Q1016 NOSIG

时间: 11:26 (01:56 UTC)

预报

该预报发布于2小时和59分钟前的22:57 UTC
预报有效从31日的 00点(UTC)到 01日的 06点(UTC)
风速10节,风向
能见度10公里或以上
1500米以下无云,无积雨云
从 31日的 0600点(UTC)
风速10节,风向
能见度10公里或以上
1500米以下无云,无积雨云
从 31日的 1200点(UTC)
风速5节,风向南转南东
能见度10公里或以上
1500米以下无云,无积雨云
从 01日的 0000点(UTC)
风速10节,风向
能见度10公里或以上
1500米以下无云,无积雨云

TAF: YPDN 302257Z 3100/0106 10010KT CAVOK FM310600 01010KT CAVOK FM311200 15005KT CAVOK FM010000 08010KT CAVOK

超过4000个机场的气象观测和天气预报(METAR&TAF报告)。

可查询的气象台以黄色和红色小点在地图上表示。

将鼠标移到小点上方,可查看气象台名称。

然后点击查看天气观测和预报。

如需切换地图:点击带黑十字的绿色按钮放大地图;点击带横线的绿色按钮缩小地图;或者点击绿色箭头查看邻近地区的地图。


METAR-TAF: